sensor_id;sensor_type;location;lat;lon;timestamp;temperature;humidity
18648;DHT22;9453;50.294;18.644;2023-04-03T04:01:13;0.20;99.90
18648;DHT22;9453;50.294;18.644;2023-04-03T04:03:40;0.10;99.90
18648;DHT22;9453;50.294;18.644;2023-04-03T04:06:07;0.10;99.90
18648;DHT22;9453;50.294;18.644;2023-04-03T04:08:37;0.10;99.90
18648;DHT22;9453;50.294;18.644;2023-04-03T04:11:04;0.10;99.90
18648;DHT22;9453;50.294;18.644;2023-04-03T04:13:31;0.10;99.90
18648;DHT22;9453;50.294;18.644;2023-04-03T04:15:58;0.00;99.90
18648;DHT22;9453;50.294;18.644;2023-04-03T04:18:27;0.00;99.90
18648;DHT22;9453;50.294;18.644;2023-04-03T04:20:54;0.00;99.90
18648;DHT22;9453;50.294;18.644;2023-04-03T04:23:21;0.00;99.90
18648;DHT22;9453;50.294;18.644;2023-04-03T04:25:49;0.10;99.90
18648;DHT22;9453;50.294;18.644;2023-04-03T04:28:16;-0.10;99.90
18648;DHT22;9453;50.294;18.644;2023-04-03T04:30:44;-0.10;99.90
18648;DHT22;9453;50.294;18.644;2023-04-03T04:33:11;-0.10;99.90
18648;DHT22;9453;50.294;18.644;2023-04-03T04:35:41;-0.10;99.90
18648;DHT22;9453;50.294;18.644;2023-04-03T04:38:08;-0.10;99.90
18648;DHT22;9453;50.294;18.644;2023-04-03T04:40:36;-0.10;99.90
18648;DHT22;9453;50.294;18.644;2023-04-03T04:43:03;-0.10;99.90
18648;DHT22;9453;50.294;18.644;2023-04-03T04:45:30;-0.10;99.90
18648;DHT22;9453;50.294;18.644;2023-04-03T04:47:57;-0.20;99.90
18648;DHT22;9453;50.294;18.644;2023-04-03T04:50:24;0.00;99.90
18648;DHT22;9453;50.294;18.644;2023-04-03T04:52:53;-0.20;99.90
18648;DHT22;9453;50.294;18.644;2023-04-03T04:55:20;-0.20;99.90
18648;DHT22;9453;50.294;18.644;2023-04-03T04:57:47;-0.20;99.90
18648;DHT22;9453;50.294;18.644;2023-04-03T05:00:15;-0.20;99.90
18648;DHT22;9453;50.294;18.644;2023-04-03T05:02:42;-0.20;99.90
18648;DHT22;9453;50.294;18.644;2023-04-03T05:05:09;-0.20;99.90
18648;DHT22;9453;50.294;18.644;2023-04-03T05:07:38;-0.10;99.90
18648;DHT22;9453;50.294;18.644;2023-04-03T05:10:09;-0.20;99.90
18648;DHT22;9453;50.294;18.644;2023-04-03T05:15:16;-0.30;99.90
18648;DHT22;9453;50.294;18.644;2023-04-03T05:17:43;-0.20;99.90
18648;DHT22;9453;50.294;18.644;2023-04-03T05:20:11;-0.30;99.90
18648;DHT22;9453;50.294;18.644;2023-04-03T05:22:38;-0.30;99.90
18648;DHT22;9453;50.294;18.644;2023-04-03T05:25:08;-0.30;99.90
18648;DHT22;9453;50.294;18.644;2023-04-03T05:27:35;-0.30;99.90
18648;DHT22;9453;50.294;18.644;2023-04-03T05:30:02;-0.30;99.90
18648;DHT22;9453;50.294;18.644;2023-04-03T05:32:30;-0.20;99.90
18648;DHT22;9453;50.294;18.644;2023-04-03T05:34:57;-0.10;99.90
18648;DHT22;9453;50.294;18.644;2023-04-03T05:37:24;-0.30;99.90
18648;DHT22;9453;50.294;18.644;2023-04-03T05:39:51;-0.30;99.90
18648;DHT22;9453;50.294;18.644;2023-04-03T05:42:19;-0.40;99.90
18648;DHT22;9453;50.294;18.644;2023-04-03T05:44:46;-0.20;99.90
18648;DHT22;9453;50.294;18.644;2023-04-03T05:47:15;-0.30;99.90
18648;DHT22;9453;50.294;18.644;2023-04-03T05:49:42;-0.30;99.90
18648;DHT22;9453;50.294;18.644;2023-04-03T05:52:18;-0.30;99.90
18648;DHT22;9453;50.294;18.644;2023-04-03T05:54:47;-0.30;99.90
18648;DHT22;9453;50.294;18.644;2023-04-03T05:57:14;-0.20;99.90
18648;DHT22;9453;50.294;18.644;2023-04-03T05:59:43;-0.10;99.90
18648;DHT22;9453;50.294;18.644;2023-04-03T06:02:11;0.10;99.90
18648;DHT22;9453;50.294;18.644;2023-04-03T06:04:38;0.30;99.90
18648;DHT22;9453;50.294;18.644;2023-04-03T06:07:06;0.40;99.90
18648;DHT22;9453;50.294;18.644;2023-04-03T06:09:34;0.40;99.90
18648;DHT22;9453;50.294;18.644;2023-04-03T06:12:01;0.40;99.90
18648;DHT22;9453;50.294;18.644;2023-04-03T06:14:28;0.40;99.90
18648;DHT22;9453;50.294;18.644;2023-04-03T06:16:57;0.30;99.90
18648;DHT22;9453;50.294;18.644;2023-04-03T06:19:25;0.40;99.90
18648;DHT22;9453;50.294;18.644;2023-04-03T06:21:52;0.40;99.90
18648;DHT22;9453;50.294;18.644;2023-04-03T06:27:37;0.40;99.90
18648;DHT22;9453;50.294;18.644;2023-04-03T06:30:07;0.50;99.90
18648;DHT22;9453;50.294;18.644;2023-04-03T06:32:59;0.30;99.90
18648;DHT22;9453;50.294;18.644;2023-04-03T06:35:27;0.40;99.90
18648;DHT22;9453;50.294;18.644;2023-04-03T06:38:30;0.30;99.90
18648;DHT22;9453;50.294;18.644;2023-04-03T06:40:57;0.30;99.90
18648;DHT22;9453;50.294;18.644;2023-04-03T06:43:48;0.50;99.90
18648;DHT22;9453;50.294;18.644;2023-04-03T06:46:29;0.40;99.90
18648;DHT22;9453;50.294;18.644;2023-04-03T06:49:12;0.50;99.90
18648;DHT22;9453;50.294;18.644;2023-04-03T06:54:31;0.80;99.90
18648;DHT22;9453;50.294;18.644;2023-04-03T06:57:08;0.80;99.90
18648;DHT22;9453;50.294;18.644;2023-04-03T06:59:55;1.00;99.90
18648;DHT22;9453;50.294;18.644;2023-04-03T07:02:22;1.00;99.90
18648;DHT22;9453;50.294;18.644;2023-04-03T07:05:01;0.90;99.90
18648;DHT22;9453;50.294;18.644;2023-04-03T07:07:37;1.30;99.90
18648;DHT22;9453;50.294;18.644;2023-04-03T07:10:13;1.40;99.90
18648;DHT22;9453;50.294;18.644;2023-04-03T07:12:56;1.70;99.90
18648;DHT22;9453;50.294;18.644;2023-04-03T07:15:27;1.80;99.90
18648;DHT22;9453;50.294;18.644;2023-04-03T07:18:03;2.00;99.90
18648;DHT22;9453;50.294;18.644;2023-04-03T07:21:08;2.10;99.90
18648;DHT22;9453;50.294;18.644;2023-04-03T07:26:15;2.00;99.90
18648;DHT22;9453;50.294;18.644;2023-04-03T07:26:27;2.10;99.90
18648;DHT22;9453;50.294;18.644;2023-04-03T07:28:57;2.10;99.90
18648;DHT22;9453;50.294;18.644;2023-04-03T07:31:52;2.30;99.90
18648;DHT22;9453;50.294;18.644;2023-04-03T07:34:57;2.40;99.90
18648;DHT22;9453;50.294;18.644;2023-04-03T07:37:57;2.30;99.30
18648;DHT22;9453;50.294;18.644;2023-04-03T07:40:27;2.50;99.80
18648;DHT22;9453;50.294;18.644;2023-04-03T07:43:17;2.40;99.60
18648;DHT22;9453;50.294;18.644;2023-04-03T07:46:17;2.40;98.60
18648;DHT22;9453;50.294;18.644;2023-04-03T07:48:56;2.30;99.60
18648;DHT22;9453;50.294;18.644;2023-04-03T07:51:37;2.50;99.90
18648;DHT22;9453;50.294;18.644;2023-04-03T07:54:21;2.40;99.90
18648;DHT22;9453;50.294;18.644;2023-04-03T07:57:00;2.60;99.90
18648;DHT22;9453;50.294;18.644;2023-04-03T07:59:38;2.50;99.90
18648;DHT22;9453;50.294;18.644;2023-04-03T08:02:17;2.50;99.90
18648;DHT22;9453;50.294;18.644;2023-04-03T08:04:57;2.50;99.90
18648;DHT22;9453;50.294;18.644;2023-04-03T08:07:33;2.50;99.90
18648;DHT22;9453;50.294;18.644;2023-04-03T08:10:10;2.40;96.20
18648;DHT22;9453;50.294;18.644;2023-04-03T08:12:40;2.60;96.10
18648;DHT22;9453;50.294;18.644;2023-04-03T08:15:29;2.60;94.50
18648;DHT22;9453;50.294;18.644;2023-04-03T08:17:57;2.90;93.50
18648;DHT22;9453;50.294;18.644;2023-04-03T08:20:29;3.20;91.80
18648;DHT22;9453;50.294;18.644;2023-04-03T08:23:18;3.40;88.70
18648;DHT22;9453;50.294;18.644;2023-04-03T08:25:56;3.50;90.80
18648;DHT22;9453;50.294;18.644;2023-04-03T08:28:33;3.40;82.80
18648;DHT22;9453;50.294;18.644;2023-04-03T08:34:03;3.50;75.60
18648;DHT22;9453;50.294;18.644;2023-04-03T08:36:37;3.30;72.20
18648;DHT22;9453;50.294;18.644;2023-04-03T08:39:19;3.10;70.80
18648;DHT22;9453;50.294;18.644;2023-04-03T08:42:24;3.20;73.50
18648;DHT22;9453;50.294;18.644;2023-04-03T08:45:17;3.00;71.50
18648;DHT22;9453;50.294;18.644;2023-04-03T08:48:07;3.20;71.00
18648;DHT22;9453;50.294;18.644;2023-04-03T08:50:40;3.10;69.10
18648;DHT22;9453;50.294;18.644;2023-04-03T08:53:15;3.10;69.20
18648;DHT22;9453;50.294;18.644;2023-04-03T08:55:46;3.20;68.80
18648;DHT22;9453;50.294;18.644;2023-04-03T08:58:18;3.50;70.80
18648;DHT22;9453;50.294;18.644;2023-04-03T09:00:48;3.70;67.90
18648;DHT22;9453;50.294;18.644;2023-04-03T09:03:18;3.70;66.30
18648;DHT22;9453;50.294;18.644;2023-04-03T09:05:53;3.60;64.50
18648;DHT22;9453;50.294;18.644;2023-04-03T09:08:24;3.60;64.60
18648;DHT22;9453;50.294;18.644;2023-04-03T09:11:04;3.70;64.40
18648;DHT22;9453;50.294;18.644;2023-04-03T09:13:44;3.90;64.20
18648;DHT22;9453;50.294;18.644;2023-04-03T09:16:32;4.10;61.30
18648;DHT22;9453;50.294;18.644;2023-04-03T09:19:14;4.10;63.60
18648;DHT22;9453;50.294;18.644;2023-04-03T09:21:42;4.50;66.20
18648;DHT22;9453;50.294;18.644;2023-04-03T09:24:11;4.30;64.30
18648;DHT22;9453;50.294;18.644;2023-04-03T09:26:43;4.00;64.30
18648;DHT22;9453;50.294;18.644;2023-04-03T09:29:18;3.40;61.50
18648;DHT22;9453;50.294;18.644;2023-04-03T09:31:47;3.30;63.20
18648;DHT22;9453;50.294;18.644;2023-04-03T09:34:20;3.20;64.10
18648;DHT22;9453;50.294;18.644;2023-04-03T09:36:50;3.40;65.10
18648;DHT22;9453;50.294;18.644;2023-04-03T09:39:19;3.40;66.80
18648;DHT22;9453;50.294;18.644;2023-04-03T09:42:01;3.40;65.80
18648;DHT22;9453;50.294;18.644;2023-04-03T09:44:32;3.40;65.00
18648;DHT22;9453;50.294;18.644;2023-04-03T09:47:21;3.40;64.00
18648;DHT22;9453;50.294;18.644;2023-04-03T09:50:10;3.50;62.30
18648;DHT22;9453;50.294;18.644;2023-04-03T09:52:46;3.70;61.50
18648;DHT22;9453;50.294;18.644;2023-04-03T09:55:17;3.60;59.90
18648;DHT22;9453;50.294;18.644;2023-04-03T09:57:45;3.60;60.80
18648;DHT22;9453;50.294;18.644;2023-04-03T10:00:23;3.60;62.10
18648;DHT22;9453;50.294;18.644;2023-04-03T10:02:55;3.70;59.60
18648;DHT22;9453;50.294;18.644;2023-04-03T10:05:32;4.00;61.60
18648;DHT22;9453;50.294;18.644;2023-04-03T10:08:19;3.90;61.10
18648;DHT22;9453;50.294;18.644;2023-04-03T10:11:06;4.00;60.80
18648;DHT22;9453;50.294;18.644;2023-04-03T10:13:49;4.10;61.00
18648;DHT22;9453;50.294;18.644;2023-04-03T10:16:25;4.20;62.40
18648;DHT22;9453;50.294;18.644;2023-04-03T10:19:24;4.20;65.30
18648;DHT22;9453;50.294;18.644;2023-04-03T10:22:00;4.10;64.10
18648;DHT22;9453;50.294;18.644;2023-04-03T10:24:36;4.20;64.90
18648;DHT22;9453;50.294;18.644;2023-04-03T10:27:12;4.20;63.10
18648;DHT22;9453;50.294;18.644;2023-04-03T10:29:47;3.80;62.70
18648;DHT22;9453;50.294;18.644;2023-04-03T10:32:50;3.60;62.50
18648;DHT22;9453;50.294;18.644;2023-04-03T10:35:30;3.70;63.50
18648;DHT22;9453;50.294;18.644;2023-04-03T10:38:04;3.80;63.20
18648;DHT22;9453;50.294;18.644;2023-04-03T10:40:42;3.80;60.90
18648;DHT22;9453;50.294;18.644;2023-04-03T10:43:17;3.90;61.50
18648;DHT22;9453;50.294;18.644;2023-04-03T10:46:02;4.30;61.30
18648;DHT22;9453;50.294;18.644;2023-04-03T10:48:51;4.60;58.80
18648;DHT22;9453;50.294;18.644;2023-04-03T10:51:29;4.70;59.00
18648;DHT22;9453;50.294;18.644;2023-04-03T10:54:04;4.80;60.80
18648;DHT22;9453;50.294;18.644;2023-04-03T10:56:40;4.80;59.90
18648;DHT22;9453;50.294;18.644;2023-04-03T10:59:21;4.80;57.60
18648;DHT22;9453;50.294;18.644;2023-04-03T11:01:54;5.00;55.20
18648;DHT22;9453;50.294;18.644;2023-04-03T11:04:28;5.40;56.50
18648;DHT22;9453;50.294;18.644;2023-04-03T11:07:02;5.50;58.20
18648;DHT22;9453;50.294;18.644;2023-04-03T11:09:31;5.80;60.80
18648;DHT22;9453;50.294;18.644;2023-04-03T11:12:06;5.40;59.00
18648;DHT22;9453;50.294;18.644;2023-04-03T11:14:37;4.90;61.20
18648;DHT22;9453;50.294;18.644;2023-04-03T11:17:15;4.80;62.00
18648;DHT22;9453;50.294;18.644;2023-04-03T11:19:56;4.90;59.50
18648;DHT22;9453;50.294;18.644;2023-04-03T11:22:28;5.00;58.20
18648;DHT22;9453;50.294;18.644;2023-04-03T11:25:02;4.90;59.10
18648;DHT22;9453;50.294;18.644;2023-04-03T11:27:35;4.90;58.20
18648;DHT22;9453;50.294;18.644;2023-04-03T11:30:13;4.90;58.30
18648;DHT22;9453;50.294;18.644;2023-04-03T11:33:00;4.80;57.80
18648;DHT22;9453;50.294;18.644;2023-04-03T11:35:36;4.60;60.00
18648;DHT22;9453;50.294;18.644;2023-04-03T11:38:07;4.90;59.50
18648;DHT22;9453;50.294;18.644;2023-04-03T11:40:44;5.10;59.00
18648;DHT22;9453;50.294;18.644;2023-04-03T11:43:21;4.90;58.20
18648;DHT22;9453;50.294;18.644;2023-04-03T11:45:54;4.90;57.60
18648;DHT22;9453;50.294;18.644;2023-04-03T11:48:50;5.20;60.30
18648;DHT22;9453;50.294;18.644;2023-04-03T11:51:53;5.20;57.00
18648;DHT22;9453;50.294;18.644;2023-04-03T11:54:48;5.50;56.40
18648;DHT22;9453;50.294;18.644;2023-04-03T11:57:44;5.40;54.40
18648;DHT22;9453;50.294;18.644;2023-04-03T12:00:46;5.30;55.30
18648;DHT22;9453;50.294;18.644;2023-04-03T12:09:56;5.40;58.60
18648;DHT22;9453;50.294;18.644;2023-04-03T12:12:35;5.20;56.60
18648;DHT22;9453;50.294;18.644;2023-04-03T12:15:22;5.20;55.50
18648;DHT22;9453;50.294;18.644;2023-04-03T12:17:49;5.30;55.10
18648;DHT22;9453;50.294;18.644;2023-04-03T12:20:54;5.70;55.10
18648;DHT22;9453;50.294;18.644;2023-04-03T12:23:32;6.00;55.30
18648;DHT22;9453;50.294;18.644;2023-04-03T12:26:20;5.70;56.40
18648;DHT22;9453;50.294;18.644;2023-04-03T12:28:49;5.30;56.70
18648;DHT22;9453;50.294;18.644;2023-04-03T12:31:19;5.00;55.80
18648;DHT22;9453;50.294;18.644;2023-04-03T12:34:05;5.10;56.80
18648;DHT22;9453;50.294;18.644;2023-04-03T12:36:42;5.20;55.70
18648;DHT22;9453;50.294;18.644;2023-04-03T12:39:33;5.40;55.50
18648;DHT22;9453;50.294;18.644;2023-04-03T12:42:14;5.50;53.30
18648;DHT22;9453;50.294;18.644;2023-04-03T12:44:50;5.30;53.60
18648;DHT22;9453;50.294;18.644;2023-04-03T12:47:24;5.20;54.60
18648;DHT22;9453;50.294;18.644;2023-04-03T12:49:53;5.10;55.40
18648;DHT22;9453;50.294;18.644;2023-04-03T12:52:29;5.00;55.30
18648;DHT22;9453;50.294;18.644;2023-04-03T12:55:00;5.20;55.10
18648;DHT22;9453;50.294;18.644;2023-04-03T12:57:31;5.40;53.90
18648;DHT22;9453;50.294;18.644;2023-04-03T12:59:59;5.40;51.20
18648;DHT22;9453;50.294;18.644;2023-04-03T13:02:27;5.40;52.70
18648;DHT22;9453;50.294;18.644;2023-04-03T13:04:57;5.60;52.70
18648;DHT22;9453;50.294;18.644;2023-04-03T13:07:27;6.00;54.60
18648;DHT22;9453;50.294;18.644;2023-04-03T13:10:03;5.90;53.00
18648;DHT22;9453;50.294;18.644;2023-04-03T13:12:32;5.90;54.30
18648;DHT22;9453;50.294;18.644;2023-04-03T13:15:02;5.80;54.20
18648;DHT22;9453;50.294;18.644;2023-04-03T13:17:30;5.50;54.50
18648;DHT22;9453;50.294;18.644;2023-04-03T13:20:11;5.30;54.80
18648;DHT22;9453;50.294;18.644;2023-04-03T13:22:40;5.30;56.60
18648;DHT22;9453;50.294;18.644;2023-04-03T13:25:11;5.50;55.00
18648;DHT22;9453;50.294;18.644;2023-04-03T13:27:42;5.50;53.40
18648;DHT22;9453;50.294;18.644;2023-04-03T13:30:20;5.50;53.30
18648;DHT22;9453;50.294;18.644;2023-04-03T13:32:47;5.80;52.80
18648;DHT22;9453;50.294;18.644;2023-04-03T13:35:33;6.10;52.70
18648;DHT22;9453;50.294;18.644;2023-04-03T13:38:05;6.00;52.40
18648;DHT22;9453;50.294;18.644;2023-04-03T13:40:35;5.80;53.90
18648;DHT22;9453;50.294;18.644;2023-04-03T13:43:20;5.70;52.90
18648;DHT22;9453;50.294;18.644;2023-04-03T13:46:21;5.50;53.70
18648;DHT22;9453;50.294;18.644;2023-04-03T13:48:50;5.30;53.60
18648;DHT22;9453;50.294;18.644;2023-04-03T13:51:20;5.50;53.30
18648;DHT22;9453;50.294;18.644;2023-04-03T13:53:51;5.90;54.10
18648;DHT22;9453;50.294;18.644;2023-04-03T13:56:30;6.20;53.10
18648;DHT22;9453;50.294;18.644;2023-04-03T13:59:02;5.90;51.10
18648;DHT22;9453;50.294;18.644;2023-04-03T14:01:40;5.80;52.00
18648;DHT22;9453;50.294;18.644;2023-04-03T14:04:14;5.90;52.70
18648;DHT22;9453;50.294;18.644;2023-04-03T14:06:43;5.90;50.70
18648;DHT22;9453;50.294;18.644;2023-04-03T14:09:10;5.60;50.50
18648;DHT22;9453;50.294;18.644;2023-04-03T14:11:37;5.50;52.50
18648;DHT22;9453;50.294;18.644;2023-04-03T14:14:14;5.60;51.40
18648;DHT22;9453;50.294;18.644;2023-04-03T14:16:45;5.80;51.50
18648;DHT22;9453;50.294;18.644;2023-04-03T14:19:18;6.00;52.70
18648;DHT22;9453;50.294;18.644;2023-04-03T14:21:46;6.20;51.90
18648;DHT22;9453;50.294;18.644;2023-04-03T14:24:14;6.30;51.30
18648;DHT22;9453;50.294;18.644;2023-04-03T14:26:42;6.50;52.40
18648;DHT22;9453;50.294;18.644;2023-04-03T14:29:12;6.50;51.80
18648;DHT22;9453;50.294;18.644;2023-04-03T14:31:41;6.50;50.00
18648;DHT22;9453;50.294;18.644;2023-04-03T14:34:09;6.40;49.00
18648;DHT22;9453;50.294;18.644;2023-04-03T14:36:37;6.40;50.40
18648;DHT22;9453;50.294;18.644;2023-04-03T14:39:06;6.10;50.60
18648;DHT22;9453;50.294;18.644;2023-04-03T14:41:33;6.10;51.70
18648;DHT22;9453;50.294;18.644;2023-04-03T14:44:00;6.00;52.40
18648;DHT22;9453;50.294;18.644;2023-04-03T14:46:30;5.70;52.60
18648;DHT22;9453;50.294;18.644;2023-04-03T14:48:58;5.50;54.30
18648;DHT22;9453;50.294;18.644;2023-04-03T14:51:25;5.30;52.90
18648;DHT22;9453;50.294;18.644;2023-04-03T14:53:53;5.20;54.20
18648;DHT22;9453;50.294;18.644;2023-04-03T14:56:23;5.20;55.00
18648;DHT22;9453;50.294;18.644;2023-04-03T14:58:53;5.30;55.70
18648;DHT22;9453;50.294;18.644;2023-04-03T15:01:21;5.20;54.70
18648;DHT22;9453;50.294;18.644;2023-04-03T15:03:50;5.10;54.60
18648;DHT22;9453;50.294;18.644;2023-04-03T15:06:18;5.00;54.20
18648;DHT22;9453;50.294;18.644;2023-04-03T15:08:46;5.00;54.90
18648;DHT22;9453;50.294;18.644;2023-04-03T15:11:14;5.00;55.30
18648;DHT22;9453;50.294;18.644;2023-04-03T15:13:41;4.80;55.60
18648;DHT22;9453;50.294;18.644;2023-04-03T15:16:14;4.80;55.50
18648;DHT22;9453;50.294;18.644;2023-04-03T15:18:42;4.80;56.30
18648;DHT22;9453;50.294;18.644;2023-04-03T15:21:11;4.90;56.10
18648;DHT22;9453;50.294;18.644;2023-04-03T15:23:39;4.80;56.30
18648;DHT22;9453;50.294;18.644;2023-04-03T15:26:06;4.90;57.80
18648;DHT22;9453;50.294;18.644;2023-04-03T15:28:36;4.90;57.20
18648;DHT22;9453;50.294;18.644;2023-04-03T15:31:05;4.90;57.40
18648;DHT22;9453;50.294;18.644;2023-04-03T15:33:33;4.80;56.20
18648;DHT22;9453;50.294;18.644;2023-04-03T15:36:01;4.60;56.70
18648;DHT22;9453;50.294;18.644;2023-04-03T15:38:30;4.50;56.70
18648;DHT22;9453;50.294;18.644;2023-04-03T15:40:57;4.50;56.00
18648;DHT22;9453;50.294;18.644;2023-04-03T15:43:24;4.50;57.00
18648;DHT22;9453;50.294;18.644;2023-04-03T15:45:52;4.40;55.70
18648;DHT22;9453;50.294;18.644;2023-04-03T15:48:19;4.40;56.60
18648;DHT22;9453;50.294;18.644;2023-04-03T15:50:46;4.30;56.90
18648;DHT22;9453;50.294;18.644;2023-04-03T15:53:16;4.30;57.60
18648;DHT22;9453;50.294;18.644;2023-04-03T15:58:35;4.10;57.20
18648;DHT22;9453;50.294;18.644;2023-04-03T16:01:02;4.10;57.50
18648;DHT22;9453;50.294;18.644;2023-04-03T16:03:30;4.20;57.40
18648;DHT22;9453;50.294;18.644;2023-04-03T16:05:57;4.20;57.60
18648;DHT22;9453;50.294;18.644;2023-04-03T16:08:24;4.20;57.60
18648;DHT22;9453;50.294;18.644;2023-04-03T16:10:53;4.10;57.50
18648;DHT22;9453;50.294;18.644;2023-04-03T16:13:20;4.10;58.20
18648;DHT22;9453;50.294;18.644;2023-04-03T16:15:47;4.10;58.80
18648;DHT22;9453;50.294;18.644;2023-04-03T16:18:15;4.10;57.80
18648;DHT22;9453;50.294;18.644;2023-04-03T16:20:44;4.10;58.20
18648;DHT22;9453;50.294;18.644;2023-04-03T16:23:11;4.10;59.00
18648;DHT22;9453;50.294;18.644;2023-04-03T16:25:38;4.00;59.30
18648;DHT22;9453;50.294;18.644;2023-04-03T16:28:13;4.00;59.20
18648;DHT22;9453;50.294;18.644;2023-04-03T16:30:41;3.90;58.40
18648;DHT22;9453;50.294;18.644;2023-04-03T16:33:09;3.90;58.50
18648;DHT22;9453;50.294;18.644;2023-04-03T16:35:37;3.90;58.10
18648;DHT22;9453;50.294;18.644;2023-04-03T16:38:05;3.90;59.00
18648;DHT22;9453;50.294;18.644;2023-04-03T16:40:32;3.80;58.80
18648;DHT22;9453;50.294;18.644;2023-04-03T16:43:01;3.80;59.80
18648;DHT22;9453;50.294;18.644;2023-04-03T16:45:30;3.70;59.90
18648;DHT22;9453;50.294;18.644;2023-04-03T16:47:57;3.70;61.00
18648;DHT22;9453;50.294;18.644;2023-04-03T16:50:24;3.60;61.50
18648;DHT22;9453;50.294;18.644;2023-04-03T16:52:51;3.60;62.30
18648;DHT22;9453;50.294;18.644;2023-04-03T16:55:18;3.60;62.10
18648;DHT22;9453;50.294;18.644;2023-04-03T16:57:46;3.60;62.30
18648;DHT22;9453;50.294;18.644;2023-04-03T17:00:14;3.60;62.50
18648;DHT22;9453;50.294;18.644;2023-04-03T17:02:43;3.60;62.30
18648;DHT22;9453;50.294;18.644;2023-04-03T17:05:10;3.50;62.40
18648;DHT22;9453;50.294;18.644;2023-04-03T17:07:37;3.50;62.70
18648;DHT22;9453;50.294;18.644;2023-04-03T17:10:06;3.50;62.80
18648;DHT22;9453;50.294;18.644;2023-04-03T17:12:33;3.50;63.00
18648;DHT22;9453;50.294;18.644;2023-04-03T17:15:00;3.40;64.40
18648;DHT22;9453;50.294;18.644;2023-04-03T17:17:27;3.40;63.80
18648;DHT22;9453;50.294;18.644;2023-04-03T17:19:56;3.40;64.40
18648;DHT22;9453;50.294;18.644;2023-04-03T17:22:24;3.40;63.90
18648;DHT22;9453;50.294;18.644;2023-04-03T17:24:52;3.40;63.90
18648;DHT22;9453;50.294;18.644;2023-04-03T17:27:19;3.40;64.00
18648;DHT22;9453;50.294;18.644;2023-04-03T17:29:46;3.30;64.30
18648;DHT22;9453;50.294;18.644;2023-04-03T17:32:13;3.40;63.40
18648;DHT22;9453;50.294;18.644;2023-04-03T17:34:40;3.30;63.80
18648;DHT22;9453;50.294;18.644;2023-04-03T17:37:09;3.30;63.00
18648;DHT22;9453;50.294;18.644;2023-04-03T17:39:36;3.30;64.20
18648;DHT22;9453;50.294;18.644;2023-04-03T17:42:03;3.20;63.50
18648;DHT22;9453;50.294;18.644;2023-04-03T17:44:30;3.20;63.60
18648;DHT22;9453;50.294;18.644;2023-04-03T17:46:58;3.20;63.60
18648;DHT22;9453;50.294;18.644;2023-04-03T17:49:25;3.20;63.60
18648;DHT22;9453;50.294;18.644;2023-04-03T17:51:52;3.20;63.30
18648;DHT22;9453;50.294;18.644;2023-04-03T17:54:21;3.10;63.80
18648;DHT22;9453;50.294;18.644;2023-04-03T17:56:48;3.10;63.60
18648;DHT22;9453;50.294;18.644;2023-04-03T17:59:16;3.20;64.10
18648;DHT22;9453;50.294;18.644;2023-04-03T18:01:44;3.10;64.60
18648;DHT22;9453;50.294;18.644;2023-04-03T18:04:12;3.10;64.20
18648;DHT22;9453;50.294;18.644;2023-04-03T18:06:43;3.10;64.10
18648;DHT22;9453;50.294;18.644;2023-04-03T18:09:14;3.00;64.20
18648;DHT22;9453;50.294;18.644;2023-04-03T18:11:44;3.00;63.60
18648;DHT22;9453;50.294;18.644;2023-04-03T18:14:14;3.00;63.70
18648;DHT22;9453;50.294;18.644;2023-04-03T18:16:42;3.00;63.80
18648;DHT22;9453;50.294;18.644;2023-04-03T18:19:09;3.00;64.60
18648;DHT22;9453;50.294;18.644;2023-04-03T18:21:37;3.00;64.60
18648;DHT22;9453;50.294;18.644;2023-04-03T18:24:06;3.00;64.50
18648;DHT22;9453;50.294;18.644;2023-04-03T18:26:37;3.00;64.50
18648;DHT22;9453;50.294;18.644;2023-04-03T18:29:08;3.00;64.70
18648;DHT22;9453;50.294;18.644;2023-04-03T18:31:36;3.00;64.70
18648;DHT22;9453;50.294;18.644;2023-04-03T18:34:05;2.90;65.10
18648;DHT22;9453;50.294;18.644;2023-04-03T18:36:33;2.90;64.60
18648;DHT22;9453;50.294;18.644;2023-04-03T18:39:00;2.90;64.30
18648;DHT22;9453;50.294;18.644;2023-04-03T18:41:32;2.90;65.10
18648;DHT22;9453;50.294;18.644;2023-04-03T18:44:04;2.90;65.30
18648;DHT22;9453;50.294;18.644;2023-04-03T18:46:34;2.80;65.20
18648;DHT22;9453;50.294;18.644;2023-04-03T18:49:02;2.80;64.90
18648;DHT22;9453;50.294;18.644;2023-04-03T18:51:29;2.80;65.80
18648;DHT22;9453;50.294;18.644;2023-04-03T18:53:57;2.70;65.80
18648;DHT22;9453;50.294;18.644;2023-04-03T18:56:24;2.70;66.00
18648;DHT22;9453;50.294;18.644;2023-04-03T18:58:51;2.70;67.00
18648;DHT22;9453;50.294;18.644;2023-04-03T19:01:18;2.70;66.90
18648;DHT22;9453;50.294;18.644;2023-04-03T19:03:47;2.70;67.10
18648;DHT22;9453;50.294;18.644;2023-04-03T19:06:14;2.70;67.30
18648;DHT22;9453;50.294;18.644;2023-04-03T19:08:41;2.70;67.40
18648;DHT22;9453;50.294;18.644;2023-04-03T19:11:08;2.70;68.70
18648;DHT22;9453;50.294;18.644;2023-04-03T19:13:36;2.60;68.20
18648;DHT22;9453;50.294;18.644;2023-04-03T19:16:03;2.60;68.70
18648;DHT22;9453;50.294;18.644;2023-04-03T19:18:31;2.60;69.00
18648;DHT22;9453;50.294;18.644;2023-04-03T19:21:00;2.60;69.50
18648;DHT22;9453;50.294;18.644;2023-04-03T19:23:28;2.50;69.70
18648;DHT22;9453;50.294;18.644;2023-04-03T19:25:59;2.50;70.00
18648;DHT22;9453;50.294;18.644;2023-04-03T19:28:27;2.50;70.80
18648;DHT22;9453;50.294;18.644;2023-04-03T19:30:54;2.50;71.50
18648;DHT22;9453;50.294;18.644;2023-04-03T19:33:23;2.50;71.50
18648;DHT22;9453;50.294;18.644;2023-04-03T19:35:50;2.50;71.80
18648;DHT22;9453;50.294;18.644;2023-04-03T19:38:19;2.40;71.80
18648;DHT22;9453;50.294;18.644;2023-04-03T19:40:47;2.40;72.00
18648;DHT22;9453;50.294;18.644;2023-04-03T19:43:15;2.40;72.50
18648;DHT22;9453;50.294;18.644;2023-04-03T19:45:43;2.40;72.40
18648;DHT22;9453;50.294;18.644;2023-04-03T19:48:18;2.40;72.70
18648;DHT22;9453;50.294;18.644;2023-04-03T19:50:46;2.40;72.70
18648;DHT22;9453;50.294;18.644;2023-04-03T19:53:14;2.40;72.70
18648;DHT22;9453;50.294;18.644;2023-04-03T19:55:46;2.40;72.80
18648;DHT22;9453;50.294;18.644;2023-04-03T19:58:13;2.40;72.80
18648;DHT22;9453;50.294;18.644;2023-04-03T20:00:40;2.40;72.80
18648;DHT22;9453;50.294;18.644;2023-04-03T20:03:07;2.30;73.50
18648;DHT22;9453;50.294;18.644;2023-04-03T20:05:34;2.30;73.50
18648;DHT22;9453;50.294;18.644;2023-04-03T20:08:04;2.20;73.90
18648;DHT22;9453;50.294;18.644;2023-04-03T20:10:32;2.20;73.80
18648;DHT22;9453;50.294;18.644;2023-04-03T20:13:01;2.20;74.30
18648;DHT22;9453;50.294;18.644;2023-04-03T20:15:33;2.20;74.10
18648;DHT22;9453;50.294;18.644;2023-04-03T20:18:05;2.20;74.60
18648;DHT22;9453;50.294;18.644;2023-04-03T20:20:32;2.20;75.00
18648;DHT22;9453;50.294;18.644;2023-04-03T20:23:00;2.20;75.70
18648;DHT22;9453;50.294;18.644;2023-04-03T20:25:27;2.10;76.70
18648;DHT22;9453;50.294;18.644;2023-04-03T20:27:54;2.10;76.40
18648;DHT22;9453;50.294;18.644;2023-04-03T20:30:23;2.10;77.00
18648;DHT22;9453;50.294;18.644;2023-04-03T20:32:50;2.10;76.70
18648;DHT22;9453;50.294;18.644;2023-04-03T20:35:18;2.00;77.00
18648;DHT22;9453;50.294;18.644;2023-04-03T20:37:46;1.90;77.00
18648;DHT22;9453;50.294;18.644;2023-04-03T20:40:14;1.80;77.60